sensor_id;sensor_type;location;lat;lon;timestamp;temperature;humidity
35563;DHT22;21665;40.108;18.302;2024-01-25T00:01:34;7.10;99.90
35563;DHT22;21665;40.108;18.302;2024-01-25T00:04:01;7.10;99.90
35563;DHT22;21665;40.108;18.302;2024-01-25T00:06:28;7.10;99.90
35563;DHT22;21665;40.108;18.302;2024-01-25T00:08:54;7.00;99.90
35563;DHT22;21665;40.108;18.302;2024-01-25T00:11:20;7.00;99.90
35563;DHT22;21665;40.108;18.302;2024-01-25T00:13:46;7.00;99.90
35563;DHT22;21665;40.108;18.302;2024-01-25T00:16:13;6.90;99.90
35563;DHT22;21665;40.108;18.302;2024-01-25T00:18:39;6.90;99.90
35563;DHT22;21665;40.108;18.302;2024-01-25T00:21:06;6.90;99.90
35563;DHT22;21665;40.108;18.302;2024-01-25T00:23:33;6.90;99.90
35563;DHT22;21665;40.108;18.302;2024-01-25T00:26:00;6.90;99.90
35563;DHT22;21665;40.108;18.302;2024-01-25T00:28:26;6.90;99.90
35563;DHT22;21665;40.108;18.302;2024-01-25T00:30:54;6.90;99.90
35563;DHT22;21665;40.108;18.302;2024-01-25T00:33:20;6.90;99.90
35563;DHT22;21665;40.108;18.302;2024-01-25T00:35:47;6.80;99.90
35563;DHT22;21665;40.108;18.302;2024-01-25T00:38:14;6.70;99.90
35563;DHT22;21665;40.108;18.302;2024-01-25T00:40:41;6.70;99.90
35563;DHT22;21665;40.108;18.302;2024-01-25T00:43:07;6.70;99.90
35563;DHT22;21665;40.108;18.302;2024-01-25T00:45:35;6.60;99.90
35563;DHT22;21665;40.108;18.302;2024-01-25T00:48:01;6.60;99.90
35563;DHT22;21665;40.108;18.302;2024-01-25T00:50:28;6.50;99.90
35563;DHT22;21665;40.108;18.302;2024-01-25T00:52:54;6.50;99.90
35563;DHT22;21665;40.108;18.302;2024-01-25T00:55:21;6.40;99.90
35563;DHT22;21665;40.108;18.302;2024-01-25T00:57:50;6.40;99.90
35563;DHT22;21665;40.108;18.302;2024-01-25T01:00:18;6.30;99.90
35563;DHT22;21665;40.108;18.302;2024-01-25T01:02:45;6.30;99.90
35563;DHT22;21665;40.108;18.302;2024-01-25T01:05:12;6.30;99.90
35563;DHT22;21665;40.108;18.302;2024-01-25T01:07:39;6.30;99.90
35563;DHT22;21665;40.108;18.302;2024-01-25T01:10:09;6.30;99.90
35563;DHT22;21665;40.108;18.302;2024-01-25T01:12:36;6.20;99.90
35563;DHT22;21665;40.108;18.302;2024-01-25T01:15:02;6.30;99.90
35563;DHT22;21665;40.108;18.302;2024-01-25T01:17:29;6.30;99.90
35563;DHT22;21665;40.108;18.302;2024-01-25T01:19:56;6.30;99.90
35563;DHT22;21665;40.108;18.302;2024-01-25T01:22:22;6.30;99.90
35563;DHT22;21665;40.108;18.302;2024-01-25T01:24:49;6.30;99.90
35563;DHT22;21665;40.108;18.302;2024-01-25T01:27:17;6.20;99.90
35563;DHT22;21665;40.108;18.302;2024-01-25T01:29:43;6.10;99.90
35563;DHT22;21665;40.108;18.302;2024-01-25T01:32:10;6.00;99.90
35563;DHT22;21665;40.108;18.302;2024-01-25T01:34:36;6.00;99.90
35563;DHT22;21665;40.108;18.302;2024-01-25T01:37:02;5.90;99.90
35563;DHT22;21665;40.108;18.302;2024-01-25T01:39:29;5.80;99.90
35563;DHT22;21665;40.108;18.302;2024-01-25T01:41:55;5.80;99.90
35563;DHT22;21665;40.108;18.302;2024-01-25T01:44:21;5.80;99.90
35563;DHT22;21665;40.108;18.302;2024-01-25T01:46:47;5.80;99.90
35563;DHT22;21665;40.108;18.302;2024-01-25T01:49:15;5.80;99.90
35563;DHT22;21665;40.108;18.302;2024-01-25T01:51:42;5.80;99.90
35563;DHT22;21665;40.108;18.302;2024-01-25T01:54:09;5.80;99.90
35563;DHT22;21665;40.108;18.302;2024-01-25T01:56:36;5.90;99.90
35563;DHT22;21665;40.108;18.302;2024-01-25T01:59:06;5.90;99.90
35563;DHT22;21665;40.108;18.302;2024-01-25T02:01:34;5.90;99.90
35563;DHT22;21665;40.108;18.302;2024-01-25T02:04:01;5.90;99.90
35563;DHT22;21665;40.108;18.302;2024-01-25T02:06:27;5.90;99.90
35563;DHT22;21665;40.108;18.302;2024-01-25T02:08:54;5.80;99.90
35563;DHT22;21665;40.108;18.302;2024-01-25T02:11:22;5.70;99.90
35563;DHT22;21665;40.108;18.302;2024-01-25T02:13:48;5.70;99.90
35563;DHT22;21665;40.108;18.302;2024-01-25T02:16:14;5.80;99.90
35563;DHT22;21665;40.108;18.302;2024-01-25T02:18:41;5.80;99.90
35563;DHT22;21665;40.108;18.302;2024-01-25T02:21:08;5.90;99.90
35563;DHT22;21665;40.108;18.302;2024-01-25T02:23:35;6.00;99.90
35563;DHT22;21665;40.108;18.302;2024-01-25T02:26:02;6.00;99.90
35563;DHT22;21665;40.108;18.302;2024-01-25T02:28:28;6.00;99.90
35563;DHT22;21665;40.108;18.302;2024-01-25T02:30:55;6.10;99.90
35563;DHT22;21665;40.108;18.302;2024-01-25T02:33:21;6.00;99.90
35563;DHT22;21665;40.108;18.302;2024-01-25T02:35:47;5.90;99.90
35563;DHT22;21665;40.108;18.302;2024-01-25T02:38:13;5.80;99.90
35563;DHT22;21665;40.108;18.302;2024-01-25T02:40:40;5.70;99.90
35563;DHT22;21665;40.108;18.302;2024-01-25T02:43:06;5.60;99.90
35563;DHT22;21665;40.108;18.302;2024-01-25T02:45:32;5.50;99.90
35563;DHT22;21665;40.108;18.302;2024-01-25T02:47:59;5.50;99.90
35563;DHT22;21665;40.108;18.302;2024-01-25T02:50:28;5.40;99.90
35563;DHT22;21665;40.108;18.302;2024-01-25T02:52:54;5.40;99.90
35563;DHT22;21665;40.108;18.302;2024-01-25T02:55:21;5.30;99.90
35563;DHT22;21665;40.108;18.302;2024-01-25T02:57:47;5.30;99.90
35563;DHT22;21665;40.108;18.302;2024-01-25T03:00:16;5.40;99.90
35563;DHT22;21665;40.108;18.302;2024-01-25T03:02:46;5.30;99.90
35563;DHT22;21665;40.108;18.302;2024-01-25T03:05:12;5.30;99.90
35563;DHT22;21665;40.108;18.302;2024-01-25T03:07:38;5.20;99.90
35563;DHT22;21665;40.108;18.302;2024-01-25T03:10:05;5.10;99.90
35563;DHT22;21665;40.108;18.302;2024-01-25T03:12:32;5.10;99.90
35563;DHT22;21665;40.108;18.302;2024-01-25T03:14:58;5.00;99.90
35563;DHT22;21665;40.108;18.302;2024-01-25T03:17:24;5.00;99.90
35563;DHT22;21665;40.108;18.302;2024-01-25T03:19:51;5.00;99.90
35563;DHT22;21665;40.108;18.302;2024-01-25T03:22:18;4.90;99.90
35563;DHT22;21665;40.108;18.302;2024-01-25T03:24:44;4.90;99.90
35563;DHT22;21665;40.108;18.302;2024-01-25T03:27:14;4.80;99.90
35563;DHT22;21665;40.108;18.302;2024-01-25T03:29:43;4.80;99.90
35563;DHT22;21665;40.108;18.302;2024-01-25T03:32:10;4.80;99.90
35563;DHT22;21665;40.108;18.302;2024-01-25T03:34:37;4.70;99.90
35563;DHT22;21665;40.108;18.302;2024-01-25T03:37:04;4.80;99.90
35563;DHT22;21665;40.108;18.302;2024-01-25T03:39:30;4.80;99.90
35563;DHT22;21665;40.108;18.302;2024-01-25T03:41:56;4.70;99.90
35563;DHT22;21665;40.108;18.302;2024-01-25T03:44:23;4.70;99.90
35563;DHT22;21665;40.108;18.302;2024-01-25T03:46:49;4.80;99.90
35563;DHT22;21665;40.108;18.302;2024-01-25T03:49:16;4.90;99.90
35563;DHT22;21665;40.108;18.302;2024-01-25T03:51:42;4.90;99.90
35563;DHT22;21665;40.108;18.302;2024-01-25T03:54:09;4.80;99.90
35563;DHT22;21665;40.108;18.302;2024-01-25T03:56:36;4.80;99.90
35563;DHT22;21665;40.108;18.302;2024-01-25T03:59:03;4.70;99.90
35563;DHT22;21665;40.108;18.302;2024-01-25T04:01:29;4.70;99.90
35563;DHT22;21665;40.108;18.302;2024-01-25T04:03:56;4.70;99.90
35563;DHT22;21665;40.108;18.302;2024-01-25T04:06:25;4.60;99.90
35563;DHT22;21665;40.108;18.302;2024-01-25T04:08:51;4.60;99.90
35563;DHT22;21665;40.108;18.302;2024-01-25T04:11:17;4.50;99.90
35563;DHT22;21665;40.108;18.302;2024-01-25T04:13:44;4.50;99.90
35563;DHT22;21665;40.108;18.302;2024-01-25T04:16:14;4.50;99.90
35563;DHT22;21665;40.108;18.302;2024-01-25T04:18:40;4.50;99.90
35563;DHT22;21665;40.108;18.302;2024-01-25T04:21:07;4.50;99.90
35563;DHT22;21665;40.108;18.302;2024-01-25T04:23:35;4.50;99.90
35563;DHT22;21665;40.108;18.302;2024-01-25T04:26:01;4.50;99.90
35563;DHT22;21665;40.108;18.302;2024-01-25T04:28:28;4.40;99.90
35563;DHT22;21665;40.108;18.302;2024-01-25T04:30:54;4.40;99.90
35563;DHT22;21665;40.108;18.302;2024-01-25T04:33:20;4.40;99.90
35563;DHT22;21665;40.108;18.302;2024-01-25T04:35:46;4.50;99.90
35563;DHT22;21665;40.108;18.302;2024-01-25T04:38:13;4.50;99.90
35563;DHT22;21665;40.108;18.302;2024-01-25T04:40:39;4.50;99.90
35563;DHT22;21665;40.108;18.302;2024-01-25T04:43:06;4.40;99.90
35563;DHT22;21665;40.108;18.302;2024-01-25T04:45:32;4.40;99.90
35563;DHT22;21665;40.108;18.302;2024-01-25T04:47:58;4.30;99.90
35563;DHT22;21665;40.108;18.302;2024-01-25T04:50:25;4.20;99.90
35563;DHT22;21665;40.108;18.302;2024-01-25T04:52:51;4.20;99.90
35563;DHT22;21665;40.108;18.302;2024-01-25T04:55:18;4.20;99.90
35563;DHT22;21665;40.108;18.302;2024-01-25T04:57:45;4.30;99.90
35563;DHT22;21665;40.108;18.302;2024-01-25T05:00:14;4.20;99.90
35563;DHT22;21665;40.108;18.302;2024-01-25T05:02:41;4.30;99.90
35563;DHT22;21665;40.108;18.302;2024-01-25T05:05:07;4.30;99.90
35563;DHT22;21665;40.108;18.302;2024-01-25T05:07:33;4.30;99.90
35563;DHT22;21665;40.108;18.302;2024-01-25T05:10:00;4.20;99.90
35563;DHT22;21665;40.108;18.302;2024-01-25T05:12:26;4.20;99.90
35563;DHT22;21665;40.108;18.302;2024-01-25T05:14:52;4.20;99.90
35563;DHT22;21665;40.108;18.302;2024-01-25T05:17:19;4.20;99.90
35563;DHT22;21665;40.108;18.302;2024-01-25T05:19:45;4.20;99.90
35563;DHT22;21665;40.108;18.302;2024-01-25T05:22:12;4.20;99.90
35563;DHT22;21665;40.108;18.302;2024-01-25T05:24:39;4.20;99.90
35563;DHT22;21665;40.108;18.302;2024-01-25T05:27:05;4.20;99.90
35563;DHT22;21665;40.108;18.302;2024-01-25T05:29:31;4.10;99.90
35563;DHT22;21665;40.108;18.302;2024-01-25T05:32:01;4.10;99.90
35563;DHT22;21665;40.108;18.302;2024-01-25T05:34:27;4.10;99.90
35563;DHT22;21665;40.108;18.302;2024-01-25T05:36:54;4.00;99.90
35563;DHT22;21665;40.108;18.302;2024-01-25T05:39:20;4.00;99.90
35563;DHT22;21665;40.108;18.302;2024-01-25T05:41:46;4.00;99.90
35563;DHT22;21665;40.108;18.302;2024-01-25T05:44:13;3.90;99.90
35563;DHT22;21665;40.108;18.302;2024-01-25T05:46:42;3.90;99.90
35563;DHT22;21665;40.108;18.302;2024-01-25T05:49:08;3.90;99.90
35563;DHT22;21665;40.108;18.302;2024-01-25T05:51:34;3.80;99.90
35563;DHT22;21665;40.108;18.302;2024-01-25T05:54:01;3.80;99.90
35563;DHT22;21665;40.108;18.302;2024-01-25T05:56:28;3.80;99.90
35563;DHT22;21665;40.108;18.302;2024-01-25T05:58:54;3.90;99.90
35563;DHT22;21665;40.108;18.302;2024-01-25T06:01:20;3.90;99.90
35563;DHT22;21665;40.108;18.302;2024-01-25T06:03:47;3.90;99.90
35563;DHT22;21665;40.108;18.302;2024-01-25T06:06:13;3.90;99.90
35563;DHT22;21665;40.108;18.302;2024-01-25T06:08:40;3.90;99.90
35563;DHT22;21665;40.108;18.302;2024-01-25T06:11:08;3.90;99.90
35563;DHT22;21665;40.108;18.302;2024-01-25T06:13:41;3.80;99.90
35563;DHT22;21665;40.108;18.302;2024-01-25T06:16:08;3.80;99.90
35563;DHT22;21665;40.108;18.302;2024-01-25T06:18:34;3.80;99.90
35563;DHT22;21665;40.108;18.302;2024-01-25T06:21:01;3.80;99.90
35563;DHT22;21665;40.108;18.302;2024-01-25T06:23:27;3.80;99.90
35563;DHT22;21665;40.108;18.302;2024-01-25T06:25:53;3.80;99.90
35563;DHT22;21665;40.108;18.302;2024-01-25T06:28:20;3.90;99.90
35563;DHT22;21665;40.108;18.302;2024-01-25T06:30:47;3.90;99.90
35563;DHT22;21665;40.108;18.302;2024-01-25T06:33:14;3.90;99.90
35563;DHT22;21665;40.108;18.302;2024-01-25T06:35:40;4.00;99.90
35563;DHT22;21665;40.108;18.302;2024-01-25T06:38:06;4.10;99.90
35563;DHT22;21665;40.108;18.302;2024-01-25T06:40:33;4.20;99.90
35563;DHT22;21665;40.108;18.302;2024-01-25T06:42:59;4.30;99.90
35563;DHT22;21665;40.108;18.302;2024-01-25T06:45:26;4.60;99.90
35563;DHT22;21665;40.108;18.302;2024-01-25T06:47:53;5.00;99.90
35563;DHT22;21665;40.108;18.302;2024-01-25T06:50:19;5.40;99.90
35563;DHT22;21665;40.108;18.302;2024-01-25T06:52:46;5.80;99.90
35563;DHT22;21665;40.108;18.302;2024-01-25T06:55:13;6.10;99.90
35563;DHT22;21665;40.108;18.302;2024-01-25T06:57:39;6.30;99.90
35563;DHT22;21665;40.108;18.302;2024-01-25T07:00:06;6.40;99.90
35563;DHT22;21665;40.108;18.302;2024-01-25T07:02:34;6.60;99.90
35563;DHT22;21665;40.108;18.302;2024-01-25T07:05:00;6.80;99.90
35563;DHT22;21665;40.108;18.302;2024-01-25T07:07:27;7.00;99.90
35563;DHT22;21665;40.108;18.302;2024-01-25T07:09:57;7.50;99.90
35563;DHT22;21665;40.108;18.302;2024-01-25T07:12:23;7.90;99.90
35563;DHT22;21665;40.108;18.302;2024-01-25T07:14:50;8.50;99.90
35563;DHT22;21665;40.108;18.302;2024-01-25T07:17:16;9.00;99.90
35563;DHT22;21665;40.108;18.302;2024-01-25T07:19:42;9.30;99.90
35563;DHT22;21665;40.108;18.302;2024-01-25T07:22:09;9.70;99.90
35563;DHT22;21665;40.108;18.302;2024-01-25T07:24:37;9.90;99.90
35563;DHT22;21665;40.108;18.302;2024-01-25T07:27:04;10.20;99.90
35563;DHT22;21665;40.108;18.302;2024-01-25T07:29:30;10.50;99.90
35563;DHT22;21665;40.108;18.302;2024-01-25T07:31:56;10.70;99.90
35563;DHT22;21665;40.108;18.302;2024-01-25T07:34:23;10.90;99.90
35563;DHT22;21665;40.108;18.302;2024-01-25T07:36:49;11.20;99.90
35563;DHT22;21665;40.108;18.302;2024-01-25T07:39:15;11.40;99.90
35563;DHT22;21665;40.108;18.302;2024-01-25T07:41:42;11.60;99.90
35563;DHT22;21665;40.108;18.302;2024-01-25T07:44:08;11.80;99.90
35563;DHT22;21665;40.108;18.302;2024-01-25T07:46:35;12.00;99.90
35563;DHT22;21665;40.108;18.302;2024-01-25T07:49:01;12.00;99.90
35563;DHT22;21665;40.108;18.302;2024-01-25T07:51:28;11.90;99.90
35563;DHT22;21665;40.108;18.302;2024-01-25T07:53:55;12.00;99.90
35563;DHT22;21665;40.108;18.302;2024-01-25T07:56:21;12.10;99.90
35563;DHT22;21665;40.108;18.302;2024-01-25T07:58:50;12.20;99.90
35563;DHT22;21665;40.108;18.302;2024-01-25T08:01:20;12.40;99.90
35563;DHT22;21665;40.108;18.302;2024-01-25T08:03:47;12.60;99.90
35563;DHT22;21665;40.108;18.302;2024-01-25T08:06:14;12.80;99.90
35563;DHT22;21665;40.108;18.302;2024-01-25T08:08:41;12.90;99.90
35563;DHT22;21665;40.108;18.302;2024-01-25T08:11:07;13.20;99.90
35563;DHT22;21665;40.108;18.302;2024-01-25T08:13:34;13.20;99.90
35563;DHT22;21665;40.108;18.302;2024-01-25T08:16:04;13.30;99.90
35563;DHT22;21665;40.108;18.302;2024-01-25T08:18:35;13.40;99.90
35563;DHT22;21665;40.108;18.302;2024-01-25T08:21:02;13.60;99.90
35563;DHT22;21665;40.108;18.302;2024-01-25T08:23:28;13.70;99.90
35563;DHT22;21665;40.108;18.302;2024-01-25T08:25:55;13.80;99.90
35563;DHT22;21665;40.108;18.302;2024-01-25T08:28:21;14.10;99.90
35563;DHT22;21665;40.108;18.302;2024-01-25T08:30:48;14.10;99.90
35563;DHT22;21665;40.108;18.302;2024-01-25T08:33:15;14.30;99.90
35563;DHT22;21665;40.108;18.302;2024-01-25T08:35:42;14.30;99.90
35563;DHT22;21665;40.108;18.302;2024-01-25T08:38:08;14.30;99.90
35563;DHT22;21665;40.108;18.302;2024-01-25T08:40:37;14.40;99.90
35563;DHT22;21665;40.108;18.302;2024-01-25T08:43:03;14.50;99.90
35563;DHT22;21665;40.108;18.302;2024-01-25T08:45:30;14.60;99.90
35563;DHT22;21665;40.108;18.302;2024-01-25T08:47:57;14.80;99.90
35563;DHT22;21665;40.108;18.302;2024-01-25T08:50:23;14.80;99.90
35563;DHT22;21665;40.108;18.302;2024-01-25T08:52:50;14.80;99.90
35563;DHT22;21665;40.108;18.302;2024-01-25T08:55:17;14.90;99.90
35563;DHT22;21665;40.108;18.302;2024-01-25T08:57:49;14.90;99.90
35563;DHT22;21665;40.108;18.302;2024-01-25T09:00:16;14.90;99.90
35563;DHT22;21665;40.108;18.302;2024-01-25T09:02:44;15.00;99.90
35563;DHT22;21665;40.108;18.302;2024-01-25T09:05:10;15.10;99.90
35563;DHT22;21665;40.108;18.302;2024-01-25T09:07:38;15.30;99.90
35563;DHT22;21665;40.108;18.302;2024-01-25T09:10:05;15.20;99.90
35563;DHT22;21665;40.108;18.302;2024-01-25T09:12:32;15.10;99.90
35563;DHT22;21665;40.108;18.302;2024-01-25T09:14:58;15.10;99.90
35563;DHT22;21665;40.108;18.302;2024-01-25T09:17:25;15.10;99.90
35563;DHT22;21665;40.108;18.302;2024-01-25T09:19:51;15.10;99.90
35563;DHT22;21665;40.108;18.302;2024-01-25T09:22:18;15.30;99.90
35563;DHT22;21665;40.108;18.302;2024-01-25T09:24:46;15.50;99.90
35563;DHT22;21665;40.108;18.302;2024-01-25T09:27:13;15.50;99.90
35563;DHT22;21665;40.108;18.302;2024-01-25T09:29:40;15.60;99.90
35563;DHT22;21665;40.108;18.302;2024-01-25T09:32:07;15.40;99.90
35563;DHT22;21665;40.108;18.302;2024-01-25T09:34:38;15.40;99.90
35563;DHT22;21665;40.108;18.302;2024-01-25T09:37:05;15.40;99.90
35563;DHT22;21665;40.108;18.302;2024-01-25T09:39:32;15.50;99.90
35563;DHT22;21665;40.108;18.302;2024-01-25T09:41:59;15.60;99.90
35563;DHT22;21665;40.108;18.302;2024-01-25T09:44:25;15.70;99.90
35563;DHT22;21665;40.108;18.302;2024-01-25T09:46:52;15.60;99.90
35563;DHT22;21665;40.108;18.302;2024-01-25T09:49:19;15.70;99.90
35563;DHT22;21665;40.108;18.302;2024-01-25T09:51:45;15.60;99.90
35563;DHT22;21665;40.108;18.302;2024-01-25T09:54:13;15.60;99.90
35563;DHT22;21665;40.108;18.302;2024-01-25T09:56:42;15.70;99.90
35563;DHT22;21665;40.108;18.302;2024-01-25T09:59:09;15.70;99.90
35563;DHT22;21665;40.108;18.302;2024-01-25T10:01:35;15.80;99.90
35563;DHT22;21665;40.108;18.302;2024-01-25T10:04:02;15.80;99.90
35563;DHT22;21665;40.108;18.302;2024-01-25T10:06:32;15.80;99.90
35563;DHT22;21665;40.108;18.302;2024-01-25T10:09:00;15.70;99.90
35563;DHT22;21665;40.108;18.302;2024-01-25T10:11:29;15.60;99.90
35563;DHT22;21665;40.108;18.302;2024-01-25T10:14:02;15.70;99.90
35563;DHT22;21665;40.108;18.302;2024-01-25T10:16:29;15.60;99.90
35563;DHT22;21665;40.108;18.302;2024-01-25T10:18:57;15.70;99.90
35563;DHT22;21665;40.108;18.302;2024-01-25T10:21:24;15.70;99.90
35563;DHT22;21665;40.108;18.302;2024-01-25T10:23:50;15.80;99.90
35563;DHT22;21665;40.108;18.302;2024-01-25T10:26:19;15.80;99.90
35563;DHT22;21665;40.108;18.302;2024-01-25T10:28:55;15.70;99.90
35563;DHT22;21665;40.108;18.302;2024-01-25T10:31:24;15.70;99.90
35563;DHT22;21665;40.108;18.302;2024-01-25T10:33:53;15.70;99.90
35563;DHT22;21665;40.108;18.302;2024-01-25T10:36:21;15.80;99.90
35563;DHT22;21665;40.108;18.302;2024-01-25T10:38:49;15.90;99.90
35563;DHT22;21665;40.108;18.302;2024-01-25T10:41:19;15.90;99.90
35563;DHT22;21665;40.108;18.302;2024-01-25T10:43:46;15.90;99.90
35563;DHT22;21665;40.108;18.302;2024-01-25T10:46:16;16.10;99.90
35563;DHT22;21665;40.108;18.302;2024-01-25T10:48:43;16.20;99.90
35563;DHT22;21665;40.108;18.302;2024-01-25T10:51:10;16.20;99.90
35563;DHT22;21665;40.108;18.302;2024-01-25T10:53:44;16.10;99.90
35563;DHT22;21665;40.108;18.302;2024-01-25T10:56:11;15.90;99.90
35563;DHT22;21665;40.108;18.302;2024-01-25T10:58:41;15.80;99.90
35563;DHT22;21665;40.108;18.302;2024-01-25T11:01:11;15.80;99.90
35563;DHT22;21665;40.108;18.302;2024-01-25T11:03:39;15.90;99.90
35563;DHT22;21665;40.108;18.302;2024-01-25T11:06:11;15.90;99.90
35563;DHT22;21665;40.108;18.302;2024-01-25T11:08:38;15.80;99.90
35563;DHT22;21665;40.108;18.302;2024-01-25T11:11:13;15.90;99.90
35563;DHT22;21665;40.108;18.302;2024-01-25T11:13:41;15.80;99.90
35563;DHT22;21665;40.108;18.302;2024-01-25T11:16:16;15.70;99.90
35563;DHT22;21665;40.108;18.302;2024-01-25T11:18:51;15.90;99.90
35563;DHT22;21665;40.108;18.302;2024-01-25T11:21:37;15.80;99.90
35563;DHT22;21665;40.108;18.302;2024-01-25T11:24:05;16.00;99.90
35563;DHT22;21665;40.108;18.302;2024-01-25T11:26:35;16.00;99.90
35563;DHT22;21665;40.108;18.302;2024-01-25T11:29:01;16.10;99.90
35563;DHT22;21665;40.108;18.302;2024-01-25T11:31:28;16.00;99.90
35563;DHT22;21665;40.108;18.302;2024-01-25T11:33:59;16.00;99.90
35563;DHT22;21665;40.108;18.302;2024-01-25T11:36:31;16.00;99.90
35563;DHT22;21665;40.108;18.302;2024-01-25T11:38:58;15.90;99.90
35563;DHT22;21665;40.108;18.302;2024-01-25T11:41:24;16.00;99.90
35563;DHT22;21665;40.108;18.302;2024-01-25T11:43:52;16.10;99.90
35563;DHT22;21665;40.108;18.302;2024-01-25T11:46:18;16.00;99.90
35563;DHT22;21665;40.108;18.302;2024-01-25T11:48:45;16.00;99.90
35563;DHT22;21665;40.108;18.302;2024-01-25T11:51:12;15.90;99.90
35563;DHT22;21665;40.108;18.302;2024-01-25T11:53:38;15.90;99.90
35563;DHT22;21665;40.108;18.302;2024-01-25T11:56:07;16.00;99.90
35563;DHT22;21665;40.108;18.302;2024-01-25T11:58:36;16.00;99.90
35563;DHT22;21665;40.108;18.302;2024-01-25T12:01:03;15.90;99.90
35563;DHT22;21665;40.108;18.302;2024-01-25T12:03:37;15.80;99.90
35563;DHT22;21665;40.108;18.302;2024-01-25T12:06:04;15.50;99.90
35563;DHT22;21665;40.108;18.302;2024-01-25T12:08:34;15.40;99.90
35563;DHT22;21665;40.108;18.302;2024-01-25T12:11:06;15.50;99.90
35563;DHT22;21665;40.108;18.302;2024-01-25T12:13:40;15.40;99.90
35563;DHT22;21665;40.108;18.302;2024-01-25T12:16:07;15.40;99.90
35563;DHT22;21665;40.108;18.302;2024-01-25T12:18:35;15.40;99.90
35563;DHT22;21665;40.108;18.302;2024-01-25T12:21:06;15.40;99.90
35563;DHT22;21665;40.108;18.302;2024-01-25T12:23:40;15.40;99.90
35563;DHT22;21665;40.108;18.302;2024-01-25T12:26:08;15.30;99.90
35563;DHT22;21665;40.108;18.302;2024-01-25T12:28:35;15.20;99.90
35563;DHT22;21665;40.108;18.302;2024-01-25T12:31:02;15.20;99.90
35563;DHT22;21665;40.108;18.302;2024-01-25T12:33:30;15.30;99.90
35563;DHT22;21665;40.108;18.302;2024-01-25T12:35:56;15.40;99.90
35563;DHT22;21665;40.108;18.302;2024-01-25T12:38:25;15.40;99.90
35563;DHT22;21665;40.108;18.302;2024-01-25T12:40:52;15.50;99.90
35563;DHT22;21665;40.108;18.302;2024-01-25T12:43:19;15.40;99.90
35563;DHT22;21665;40.108;18.302;2024-01-25T12:45:49;15.50;99.90
35563;DHT22;21665;40.108;18.302;2024-01-25T12:48:18;15.40;99.90
35563;DHT22;21665;40.108;18.302;2024-01-25T12:50:44;15.30;99.90
35563;DHT22;21665;40.108;18.302;2024-01-25T12:53:11;15.20;99.90
35563;DHT22;21665;40.108;18.302;2024-01-25T12:55:38;15.20;99.90
35563;DHT22;21665;40.108;18.302;2024-01-25T12:58:04;15.20;99.90
35563;DHT22;21665;40.108;18.302;2024-01-25T13:00:31;15.10;99.90
35563;DHT22;21665;40.108;18.302;2024-01-25T13:02:59;15.20;99.90
35563;DHT22;21665;40.108;18.302;2024-01-25T13:05:28;15.20;99.90
35563;DHT22;21665;40.108;18.302;2024-01-25T13:07:55;15.10;99.90
35563;DHT22;21665;40.108;18.302;2024-01-25T13:10:22;15.10;99.90
35563;DHT22;21665;40.108;18.302;2024-01-25T13:12:50;15.00;99.90
35563;DHT22;21665;40.108;18.302;2024-01-25T13:15:17;15.00;99.90
35563;DHT22;21665;40.108;18.302;2024-01-25T13:17:43;15.00;99.90
35563;DHT22;21665;40.108;18.302;2024-01-25T13:20:10;15.00;99.90
35563;DHT22;21665;40.108;18.302;2024-01-25T13:22:36;15.00;99.90
35563;DHT22;21665;40.108;18.302;2024-01-25T13:25:06;15.00;99.90
35563;DHT22;21665;40.108;18.302;2024-01-25T13:27:33;15.00;99.90
35563;DHT22;21665;40.108;18.302;2024-01-25T13:29:59;15.10;99.90
35563;DHT22;21665;40.108;18.302;2024-01-25T13:32:26;15.10;99.90
35563;DHT22;21665;40.108;18.302;2024-01-25T13:34:52;15.10;99.90
35563;DHT22;21665;40.108;18.302;2024-01-25T13:37:19;15.00;99.90
35563;DHT22;21665;40.108;18.302;2024-01-25T13:39:45;15.10;99.90
35563;DHT22;21665;40.108;18.302;2024-01-25T13:42:12;15.00;99.90
35563;DHT22;21665;40.108;18.302;2024-01-25T13:44:41;14.90;99.90
35563;DHT22;21665;40.108;18.302;2024-01-25T13:47:07;14.90;99.90
35563;DHT22;21665;40.108;18.302;2024-01-25T13:49:34;14.90;99.90
35563;DHT22;21665;40.108;18.302;2024-01-25T13:52:01;14.90;99.90
35563;DHT22;21665;40.108;18.302;2024-01-25T13:54:29;14.90;99.90
35563;DHT22;21665;40.108;18.302;2024-01-25T13:56:56;15.00;99.90
35563;DHT22;21665;40.108;18.302;2024-01-25T13:59:26;15.00;99.90
35563;DHT22;21665;40.108;18.302;2024-01-25T14:01:53;15.00;99.90
35563;DHT22;21665;40.108;18.302;2024-01-25T14:04:19;14.90;99.90
35563;DHT22;21665;40.108;18.302;2024-01-25T14:06:46;14.90;99.90
35563;DHT22;21665;40.108;18.302;2024-01-25T14:09:13;14.90;99.90
35563;DHT22;21665;40.108;18.302;2024-01-25T14:11:40;14.90;99.90
35563;DHT22;21665;40.108;18.302;2024-01-25T14:14:07;14.80;99.90
35563;DHT22;21665;40.108;18.302;2024-01-25T14:16:35;14.80;99.90
35563;DHT22;21665;40.108;18.302;2024-01-25T14:19:02;14.80;99.90
35563;DHT22;21665;40.108;18.302;2024-01-25T14:21:38;14.70;99.90
35563;DHT22;21665;40.108;18.302;2024-01-25T14:24:05;14.70;99.90
35563;DHT22;21665;40.108;18.302;2024-01-25T14:26:32;14.70;99.90
35563;DHT22;21665;40.108;18.302;2024-01-25T14:28:58;14.60;99.90
35563;DHT22;21665;40.108;18.302;2024-01-25T14:31:25;14.60;99.90
35563;DHT22;21665;40.108;18.302;2024-01-25T14:33:52;14.60;99.90
35563;DHT22;21665;40.108;18.302;2024-01-25T14:36:19;14.50;99.90
35563;DHT22;21665;40.108;18.302;2024-01-25T14:38:47;14.50;99.90
35563;DHT22;21665;40.108;18.302;2024-01-25T14:41:13;14.50;99.90
35563;DHT22;21665;40.108;18.302;2024-01-25T14:43:43;14.40;99.90
35563;DHT22;21665;40.108;18.302;2024-01-25T14:46:11;14.30;99.90
35563;DHT22;21665;40.108;18.302;2024-01-25T14:48:37;14.30;99.90
35563;DHT22;21665;40.108;18.302;2024-01-25T14:51:04;14.20;99.90
35563;DHT22;21665;40.108;18.302;2024-01-25T14:53:31;14.10;99.90
35563;DHT22;21665;40.108;18.302;2024-01-25T14:56:01;14.00;99.90
35563;DHT22;21665;40.108;18.302;2024-01-25T14:58:27;14.00;99.90
35563;DHT22;21665;40.108;18.302;2024-01-25T15:00:55;13.90;99.90
35563;DHT22;21665;40.108;18.302;2024-01-25T15:03:21;13.70;99.90
35563;DHT22;21665;40.108;18.302;2024-01-25T15:05:48;13.60;99.90
35563;DHT22;21665;40.108;18.302;2024-01-25T15:08:15;13.60;99.90
35563;DHT22;21665;40.108;18.302;2024-01-25T15:10:43;13.60;99.90
35563;DHT22;21665;40.108;18.302;2024-01-25T15:13:09;13.60;99.90
35563;DHT22;21665;40.108;18.302;2024-01-25T15:15:35;13.60;99.90
35563;DHT22;21665;40.108;18.302;2024-01-25T15:18:02;13.40;99.90
35563;DHT22;21665;40.108;18.302;2024-01-25T15:20:28;13.30;99.90
35563;DHT22;21665;40.108;18.302;2024-01-25T15:22:55;13.30;99.90